createdAt,value
2017-10-08T00:03:18.275Z,0
2017-10-08T00:13:17.596Z,0
2017-10-08T00:23:17.638Z,0
2017-10-08T00:33:17.606Z,0
2017-10-08T00:43:17.851Z,0
2017-10-08T00:53:17.650Z,0
2017-10-08T01:03:17.621Z,0
2017-10-08T01:13:17.628Z,0
2017-10-08T01:23:18.547Z,0
2017-10-08T01:33:18.423Z,0
2017-10-08T01:43:17.765Z,0
2017-10-08T01:53:17.708Z,0
2017-10-08T02:03:17.767Z,0
2017-10-08T02:13:17.694Z,0
2017-10-08T02:23:17.647Z,0
2017-10-08T02:33:17.731Z,0
2017-10-08T02:43:17.716Z,0
2017-10-08T02:53:17.781Z,0
2017-10-08T03:03:17.778Z,0
2017-10-08T03:13:17.834Z,0
2017-10-08T03:23:17.760Z,0
2017-10-08T03:33:17.732Z,0
2017-10-08T03:43:17.817Z,0
2017-10-08T03:53:17.867Z,0
2017-10-08T04:03:17.848Z,0
2017-10-08T04:13:18.141Z,0
2017-10-08T04:23:17.753Z,0
2017-10-08T04:33:17.837Z,0
2017-10-08T04:43:17.835Z,0
2017-10-08T04:53:17.878Z,0
2017-10-08T05:03:17.880Z,0
2017-10-08T05:13:17.921Z,0
2017-10-08T05:23:17.855Z,0
2017-10-08T05:33:17.841Z,0
2017-10-08T05:43:17.958Z,0
2017-10-08T05:53:18.011Z,5
2017-10-08T06:03:17.941Z,10
2017-10-08T06:13:17.883Z,20
2017-10-08T06:23:17.982Z,15
2017-10-08T06:33:17.931Z,30
2017-10-08T06:43:17.916Z,25
2017-10-08T06:53:17.973Z,20
2017-10-08T07:03:17.955Z,30
2017-10-08T07:13:17.928Z,25
2017-10-08T07:23:18.040Z,65
2017-10-08T07:33:18.039Z,75
2017-10-08T07:43:18.119Z,85
2017-10-08T07:53:18.008Z,95
2017-10-08T08:03:18.124Z,110
2017-10-08T08:13:18.074Z,150
2017-10-08T08:23:17.986Z,130
2017-10-08T08:33:18.090Z,135
2017-10-08T08:43:18.052Z,150
2017-10-08T08:53:18.046Z,135
2017-10-08T09:03:18.119Z,150
2017-10-08T09:13:18.088Z,165
2017-10-08T09:23:18.094Z,150
2017-10-08T09:33:18.090Z,205
2017-10-08T09:43:18.065Z,140
2017-10-08T09:53:18.116Z,95
2017-10-08T10:03:18.199Z,160
2017-10-08T10:13:18.101Z,95
2017-10-08T10:23:18.811Z,115
2017-10-08T10:33:18.190Z,145
2017-10-08T10:43:18.125Z,175
2017-10-08T10:53:18.216Z,115
2017-10-08T11:03:18.267Z,130
2017-10-08T11:13:18.228Z,105
2017-10-08T11:23:18.226Z,125
2017-10-08T11:33:18.247Z,110
2017-10-08T11:43:18.226Z,135
2017-10-08T11:53:18.238Z,150
2017-10-08T12:03:18.219Z,190
2017-10-08T12:13:18.416Z,80
2017-10-08T12:23:18.503Z,145
2017-10-08T12:33:18.414Z,100
2017-10-08T12:43:18.425Z,85
2017-10-08T12:53:18.309Z,130
2017-10-08T13:03:18.445Z,160
2017-10-08T13:13:18.435Z,130
2017-10-08T13:23:18.432Z,90
2017-10-08T13:33:18.552Z,125
2017-10-08T13:43:18.747Z,105
2017-10-08T13:53:18.508Z,110
2017-10-08T14:03:18.489Z,120
2017-10-08T14:13:18.466Z,85
2017-10-08T14:23:18.725Z,100
2017-10-08T14:33:18.458Z,90
2017-10-08T14:43:18.573Z,75
2017-10-08T14:53:18.435Z,80
2017-10-08T15:03:18.522Z,90
2017-10-08T15:13:18.480Z,70
2017-10-08T15:23:18.544Z,70
2017-10-08T15:33:18.466Z,60
2017-10-08T15:43:18.498Z,55
2017-10-08T15:53:18.504Z,45
2017-10-08T16:03:18.516Z,35
2017-10-08T16:13:18.550Z,25
2017-10-08T16:23:18.503Z,20
2017-10-08T16:33:18.511Z,15
2017-10-08T16:43:18.547Z,5
2017-10-08T16:53:18.516Z,0
2017-10-08T17:03:18.585Z,0
2017-10-08T17:13:18.601Z,0
2017-10-08T17:23:18.549Z,0
2017-10-08T17:33:18.534Z,0
2017-10-08T17:43:18.617Z,0
2017-10-08T17:53:18.629Z,0
2017-10-08T18:03:18.629Z,0
2017-10-08T18:13:18.614Z,0
2017-10-08T18:23:18.627Z,0
2017-10-08T18:33:18.987Z,0
2017-10-08T18:43:19.826Z,0
2017-10-08T18:53:19.973Z,0
2017-10-08T19:03:21.820Z,0
2017-10-08T19:13:21.655Z,0
2017-10-08T19:23:22.692Z,0
2017-10-08T19:33:21.882Z,0
2017-10-08T19:43:20.305Z,0
2017-10-08T19:53:22.434Z,0
2017-10-08T20:03:22.910Z,0
2017-10-08T20:13:19.473Z,0
2017-10-08T20:23:18.843Z,0
2017-10-08T20:33:18.821Z,0
2017-10-08T20:43:18.920Z,0
2017-10-08T20:53:18.862Z,0
2017-10-08T21:03:19.572Z,0
2017-10-08T21:13:18.817Z,0
2017-10-08T21:23:19.289Z,0
2017-10-08T21:33:18.886Z,0
2017-10-08T21:43:19.833Z,0
2017-10-08T21:53:19.238Z,0
2017-10-08T22:03:18.946Z,0
2017-10-08T22:13:18.797Z,0
2017-10-08T22:23:19.375Z,0
2017-10-08T22:33:18.892Z,0
2017-10-08T22:43:18.895Z,0
2017-10-08T22:53:18.853Z,0
2017-10-08T23:03:19.488Z,0
2017-10-08T23:13:18.860Z,0
2017-10-08T23:23:19.568Z,0
2017-10-08T23:33:19.670Z,0
2017-10-08T23:43:18.883Z,0
2017-10-08T23:53:19.879Z,0
